createdAt,value
2023-05-05T00:00:18.552Z,30.30
2023-05-05T00:02:48.376Z,30.40
2023-05-05T00:05:17.775Z,30.40
2023-05-05T00:07:47.097Z,30.40
2023-05-05T00:10:16.418Z,30.50
2023-05-05T00:12:45.761Z,30.50
2023-05-05T00:15:15.049Z,30.50
2023-05-05T00:17:44.329Z,30.50
2023-05-05T00:20:14.590Z,30.50
2023-05-05T00:22:43.849Z,30.50
2023-05-05T00:25:13.159Z,30.60
2023-05-05T00:27:42.577Z,30.60
2023-05-05T00:30:12.569Z,30.60
2023-05-05T00:32:42.038Z,30.60
2023-05-05T00:35:11.766Z,30.70
2023-05-05T00:37:41.813Z,30.70
2023-05-05T00:40:12.239Z,30.80
2023-05-05T00:42:48.287Z,30.80
2023-05-05T00:45:19.532Z,30.80
2023-05-05T00:48:00.166Z,30.90
2023-05-05T00:50:32.194Z,31.00
2023-05-05T00:53:07.603Z,31.00
2023-05-05T00:55:37.725Z,31.10
2023-05-05T00:58:07.319Z,31.10
2023-05-05T01:00:36.661Z,31.20
2023-05-05T01:03:07.405Z,31.30
2023-05-05T01:06:01.336Z,31.30
2023-05-05T01:09:05.240Z,31.40
2023-05-05T01:11:52.312Z,31.40
2023-05-05T01:15:15.403Z,31.50
2023-05-05T01:17:57.544Z,31.60
2023-05-05T01:20:39.555Z,31.60
2023-05-05T01:23:13.852Z,31.70
2023-05-05T01:26:20.126Z,31.70
2023-05-05T01:29:13.399Z,31.80
2023-05-05T01:32:00.400Z,31.80
2023-05-05T01:34:46.796Z,31.90
2023-05-05T01:38:09.639Z,32.00
2023-05-05T01:41:10.049Z,32.00
2023-05-05T01:43:41.005Z,32.10
2023-05-05T01:46:13.243Z,32.10
2023-05-05T01:48:45.534Z,32.20
2023-05-05T01:51:17.001Z,32.30
2023-05-05T01:53:49.550Z,32.40
2023-05-05T01:56:25.981Z,32.40
2023-05-05T01:58:58.450Z,32.50
2023-05-05T02:01:29.016Z,32.60
2023-05-05T02:04:06.585Z,32.60
2023-05-05T02:06:38.073Z,32.70
2023-05-05T02:09:14.281Z,32.70
2023-05-05T02:11:49.975Z,32.70
2023-05-05T02:14:23.209Z,32.80
2023-05-05T02:16:59.365Z,32.90
2023-05-05T02:19:40.466Z,33.00
2023-05-05T02:22:13.305Z,33.00
2023-05-05T02:24:42.821Z,33.00
2023-05-05T02:27:15.435Z,33.10
2023-05-05T02:29:56.087Z,33.10
2023-05-05T02:32:53.845Z,33.20
2023-05-05T02:35:27.186Z,33.20
2023-05-05T02:38:15.466Z,33.40
2023-05-05T02:40:48.953Z,33.40
2023-05-05T02:43:22.219Z,33.50
2023-05-05T02:45:51.813Z,33.60
2023-05-05T02:48:21.181Z,33.60
2023-05-05T02:50:50.454Z,33.60
2023-05-05T02:53:24.376Z,33.60
2023-05-05T02:56:20.660Z,33.60
2023-05-05T02:59:15.942Z,33.60
2023-05-05T03:02:34.826Z,33.70
2023-05-05T03:05:18.380Z,33.80
2023-05-05T03:08:04.541Z,33.80
2023-05-05T03:10:47.931Z,33.90
2023-05-05T03:13:21.478Z,33.90
2023-05-05T03:15:54.635Z,34.00
2023-05-05T03:18:26.552Z,34.10
2023-05-05T03:20:56.640Z,34.20
2023-05-05T03:23:26.067Z,34.20
2023-05-05T03:25:55.265Z,34.30
2023-05-05T03:28:24.555Z,34.40
2023-05-05T03:30:54.546Z,34.60
2023-05-05T03:33:23.768Z,34.60
2023-05-05T03:35:53.798Z,34.70
2023-05-05T03:38:23.195Z,34.80
2023-05-05T03:40:52.452Z,34.90
2023-05-05T03:43:21.736Z,34.90
2023-05-05T03:45:51.487Z,35.00
2023-05-05T03:48:20.809Z,35.10
2023-05-05T03:50:50.850Z,35.20
2023-05-05T03:53:20.065Z,35.30
2023-05-05T03:55:49.659Z,35.40
2023-05-05T03:58:19.043Z,35.40
2023-05-05T04:00:48.346Z,35.50
2023-05-05T04:03:18.139Z,35.60
2023-05-05T04:05:48.016Z,35.70
2023-05-05T04:08:17.600Z,35.90
2023-05-05T04:10:47.314Z,35.90
2023-05-05T04:13:16.651Z,36.00
2023-05-05T04:15:49.441Z,36.10
2023-05-05T04:18:18.706Z,36.20
2023-05-05T04:20:48.467Z,36.30
2023-05-05T04:23:18.852Z,36.30
2023-05-05T04:25:48.723Z,36.40
2023-05-05T04:28:19.589Z,36.60
2023-05-05T04:30:50.280Z,36.70
2023-05-05T04:33:19.570Z,36.80
2023-05-05T04:35:49.370Z,36.90
2023-05-05T04:38:20.324Z,37.00
2023-05-05T04:40:49.538Z,37.10
2023-05-05T04:43:18.953Z,37.20
2023-05-05T04:45:57.695Z,37.30
2023-05-05T04:48:26.969Z,37.30
2023-05-05T04:50:56.115Z,37.40
2023-05-05T04:53:25.257Z,37.40
2023-05-05T04:55:54.574Z,37.60
2023-05-05T04:58:23.769Z,37.70
2023-05-05T05:00:52.934Z,37.80
2023-05-05T05:03:22.348Z,37.80
2023-05-05T05:05:52.107Z,37.90
2023-05-05T05:08:21.470Z,38.00
2023-05-05T05:10:50.622Z,38.10
2023-05-05T05:13:19.829Z,38.20
2023-05-05T05:15:49.158Z,38.30
2023-05-05T05:18:18.362Z,38.40
2023-05-05T05:20:47.597Z,38.60
2023-05-05T05:23:16.803Z,38.60
2023-05-05T05:25:47.033Z,38.60
2023-05-05T05:28:16.282Z,38.60
2023-05-05T05:30:45.458Z,38.60
2023-05-05T05:33:14.720Z,38.60
2023-05-05T05:35:43.951Z,38.70
2023-05-05T05:38:13.641Z,38.70
2023-05-05T05:40:43.519Z,38.80
2023-05-05T05:43:12.722Z,38.90
2023-05-05T05:45:42.088Z,38.90
2023-05-05T05:48:11.455Z,38.90
2023-05-05T05:50:40.755Z,38.90
2023-05-05T05:53:10.084Z,38.90
2023-05-05T05:55:39.306Z,39.00
2023-05-05T05:58:08.588Z,39.20
2023-05-05T06:00:37.848Z,39.30
2023-05-05T06:03:07.189Z,39.50
2023-05-05T06:05:36.506Z,39.50
2023-05-05T06:08:05.986Z,39.60
2023-05-05T06:10:35.524Z,39.70
2023-05-05T06:13:04.974Z,39.70
2023-05-05T06:15:34.281Z,39.70
2023-05-05T06:18:03.603Z,39.60
2023-05-05T06:20:32.957Z,39.50
2023-05-05T06:23:02.247Z,39.30
2023-05-05T06:25:31.969Z,39.20
2023-05-05T06:28:01.266Z,39.00
2023-05-05T06:30:30.731Z,38.90
2023-05-05T06:33:00.300Z,38.90
2023-05-05T06:35:31.339Z,39.00
2023-05-05T06:38:01.116Z,39.10
2023-05-05T06:40:30.390Z,39.10
2023-05-05T06:42:59.752Z,39.10
2023-05-05T06:45:29.492Z,39.10
2023-05-05T06:47:58.791Z,39.20
2023-05-05T06:50:28.188Z,39.20
2023-05-05T06:52:57.655Z,39.10
2023-05-05T06:55:27.243Z,39.10
2023-05-05T06:57:57.000Z,39.10
2023-05-05T07:00:26.472Z,39.20
2023-05-05T07:02:55.883Z,39.30
2023-05-05T07:05:25.214Z,39.50
2023-05-05T07:07:58.614Z,39.60
2023-05-05T07:10:29.391Z,39.60
2023-05-05T07:12:58.771Z,39.70
2023-05-05T07:15:29.611Z,39.70
2023-05-05T07:17:59.493Z,39.80
2023-05-05T07:20:29.143Z,39.80
2023-05-05T07:22:58.378Z,39.90
2023-05-05T07:25:27.881Z,39.90
2023-05-05T07:27:57.429Z,40.00
2023-05-05T07:30:27.670Z,40.10
2023-05-05T07:32:57.706Z,40.30
2023-05-05T07:35:27.379Z,40.50
2023-05-05T07:37:56.735Z,40.50
2023-05-05T07:40:26.694Z,40.60
2023-05-05T07:42:55.882Z,40.60
2023-05-05T07:45:25.148Z,40.60
2023-05-05T07:47:54.415Z,40.60
2023-05-05T07:50:24.200Z,40.70
2023-05-05T07:52:59.290Z,40.70
2023-05-05T07:55:39.634Z,40.80
2023-05-05T07:58:09.395Z,40.90
2023-05-05T08:00:38.901Z,40.90
2023-05-05T08:03:10.630Z,40.90
2023-05-05T08:05:41.529Z,40.80
2023-05-05T08:08:10.867Z,40.70
2023-05-05T08:10:40.068Z,40.70
2023-05-05T08:13:09.246Z,40.70
2023-05-05T08:15:38.604Z,40.70
2023-05-05T08:18:07.883Z,40.70
2023-05-05T08:20:37.165Z,40.70
2023-05-05T08:23:06.846Z,40.80
2023-05-05T08:25:36.055Z,40.80
2023-05-05T08:28:05.220Z,40.80
2023-05-05T08:30:34.504Z,40.90
2023-05-05T08:33:03.699Z,41.00
2023-05-05T08:35:32.877Z,41.00
2023-05-05T08:38:02.135Z,41.00
2023-05-05T08:40:35.825Z,41.00
2023-05-05T08:43:05.738Z,41.00
2023-05-05T08:45:35.577Z,41.00
2023-05-05T08:48:07.229Z,41.00
2023-05-05T08:50:40.442Z,40.90
2023-05-05T08:53:18.386Z,40.90
2023-05-05T08:55:57.221Z,40.90
2023-05-05T08:58:28.956Z,40.90
2023-05-05T09:00:59.147Z,40.90
2023-05-05T09:03:30.805Z,40.90
2023-05-05T09:06:00.652Z,40.90
2023-05-05T09:08:31.765Z,40.90
2023-05-05T09:11:03.160Z,40.90
2023-05-05T09:13:33.658Z,41.00
2023-05-05T09:16:02.851Z,41.10
2023-05-05T09:18:32.247Z,41.00
2023-05-05T09:21:01.554Z,41.10
2023-05-05T09:23:30.675Z,41.10
2023-05-05T09:26:10.556Z,41.10
2023-05-05T09:28:39.981Z,41.10
2023-05-05T09:31:18.258Z,41.00
2023-05-05T09:33:48.505Z,40.80
2023-05-05T09:36:17.983Z,40.80
2023-05-05T09:39:08.389Z,40.80
2023-05-05T09:41:43.206Z,40.80
2023-05-05T09:44:16.954Z,40.70
2023-05-05T09:46:56.210Z,40.60
2023-05-05T09:49:26.330Z,40.60
2023-05-05T09:51:56.766Z,40.50
2023-05-05T09:54:31.428Z,40.40
2023-05-05T09:57:00.675Z,40.40
2023-05-05T09:59:29.954Z,40.30
2023-05-05T10:02:14.024Z,40.30
2023-05-05T10:04:43.317Z,40.20
2023-05-05T10:07:25.686Z,40.10
2023-05-05T10:09:54.925Z,40.00
2023-05-05T10:12:25.106Z,39.80
2023-05-05T10:18:06.117Z,39.50
2023-05-05T10:20:43.686Z,39.30
2023-05-05T10:23:28.111Z,39.20
2023-05-05T10:26:07.733Z,39.10
2023-05-05T10:28:46.965Z,39.00
2023-05-05T10:31:26.882Z,38.90
2023-05-05T10:34:07.081Z,38.80
2023-05-05T10:36:40.302Z,38.70
2023-05-05T10:39:11.743Z,38.70
2023-05-05T10:41:41.143Z,38.60
2023-05-05T10:44:12.031Z,38.50
2023-05-05T10:46:42.790Z,38.40
2023-05-05T10:49:21.821Z,38.30
2023-05-05T10:52:35.232Z,38.30
2023-05-05T10:55:18.717Z,38.20
2023-05-05T10:57:54.442Z,38.10
2023-05-05T11:00:42.098Z,38.10
2023-05-05T11:03:21.337Z,38.00
2023-05-05T11:06:09.031Z,38.00
2023-05-05T11:08:46.788Z,37.90
2023-05-05T11:11:16.241Z,37.90
2023-05-05T11:13:45.461Z,37.80
2023-05-05T11:16:48.470Z,37.70
2023-05-05T11:19:45.385Z,37.70
2023-05-05T11:22:14.870Z,37.60
2023-05-05T11:24:44.273Z,37.50
2023-05-05T11:27:13.547Z,37.50
2023-05-05T11:30:09.262Z,37.40
2023-05-05T11:32:38.709Z,37.40
2023-05-05T11:35:09.227Z,37.40
2023-05-05T11:37:41.370Z,37.30
2023-05-05T11:40:32.573Z,37.30
2023-05-05T11:43:08.718Z,37.20
2023-05-05T11:45:38.016Z,37.20
2023-05-05T11:48:27.646Z,37.20
2023-05-05T11:50:57.080Z,37.10
2023-05-05T11:53:26.707Z,37.10
2023-05-05T11:56:23.450Z,37.00
2023-05-05T11:59:12.376Z,37.00
2023-05-05T12:01:44.571Z,36.90
2023-05-05T12:04:15.181Z,36.90
2023-05-05T12:06:46.053Z,36.80
2023-05-05T12:09:21.232Z,36.80
2023-05-05T12:12:02.211Z,36.70
2023-05-05T12:14:31.490Z,36.70
2023-05-05T12:17:09.624Z,36.60
2023-05-05T12:19:46.207Z,36.60
2023-05-05T12:22:29.115Z,36.50
2023-05-05T12:25:18.784Z,36.50
2023-05-05T12:27:56.889Z,36.50
2023-05-05T12:30:26.150Z,36.40
2023-05-05T12:33:11.984Z,36.40
2023-05-05T12:35:42.912Z,36.30
2023-05-05T12:38:12.529Z,36.30
2023-05-05T12:40:49.175Z,36.20
2023-05-05T12:43:34.930Z,36.20
2023-05-05T12:46:16.800Z,36.10
2023-05-05T12:48:48.363Z,36.00
2023-05-05T12:51:28.138Z,35.90
2023-05-05T12:54:11.190Z,35.80
2023-05-05T12:56:46.955Z,35.70
2023-05-05T12:59:28.665Z,35.60
2023-05-05T13:02:04.980Z,35.50
2023-05-05T13:04:34.269Z,35.50
2023-05-05T13:07:20.830Z,35.40
2023-05-05T13:09:52.491Z,35.40
2023-05-05T13:12:25.160Z,35.30
2023-05-05T13:14:54.721Z,35.30
2023-05-05T13:17:30.162Z,35.30
2023-05-05T13:20:01.777Z,35.20
2023-05-05T13:22:35.904Z,35.20
2023-05-05T13:25:05.827Z,35.20
2023-05-05T13:27:35.610Z,35.20
2023-05-05T13:30:06.673Z,35.20
2023-05-05T13:32:36.551Z,35.20
2023-05-05T13:35:13.888Z,35.20
2023-05-05T13:37:55.224Z,35.20
2023-05-05T13:40:25.991Z,35.10
2023-05-05T13:42:56.328Z,35.10
2023-05-05T13:45:29.318Z,35.10
2023-05-05T13:47:59.400Z,35.10
2023-05-05T13:50:31.878Z,35.10
2023-05-05T13:53:08.951Z,35.10
2023-05-05T13:55:44.734Z,35.10
2023-05-05T13:58:14.508Z,35.10
2023-05-05T14:00:46.672Z,35.00
2023-05-05T14:03:19.074Z,35.00
2023-05-05T14:05:48.773Z,35.00
2023-05-05T14:08:21.367Z,35.00
2023-05-05T14:10:52.083Z,35.00
2023-05-05T14:13:23.829Z,35.00
2023-05-05T14:15:53.741Z,35.00
2023-05-05T14:18:23.821Z,35.00
2023-05-05T14:20:53.234Z,34.90
2023-05-05T14:23:22.642Z,34.90
2023-05-05T14:25:51.983Z,34.90
2023-05-05T14:28:21.305Z,34.90
2023-05-05T14:30:50.771Z,34.80
2023-05-05T14:33:20.114Z,34.80
2023-05-05T14:35:49.564Z,34.70
2023-05-05T14:38:20.057Z,34.70
2023-05-05T14:40:49.609Z,34.60
2023-05-05T14:43:18.938Z,34.60
2023-05-05T14:45:48.484Z,34.60
2023-05-05T14:48:17.821Z,34.60
2023-05-05T14:50:50.924Z,34.50
2023-05-05T14:53:20.382Z,34.50
2023-05-05T14:55:49.747Z,34.50
2023-05-05T14:58:23.357Z,34.40
2023-05-05T15:00:56.075Z,34.40
2023-05-05T15:03:28.463Z,34.40
2023-05-05T15:06:06.238Z,34.40
2023-05-05T15:08:35.802Z,34.30
2023-05-05T15:11:05.390Z,34.30
2023-05-05T15:13:34.682Z,34.30
2023-05-05T15:16:04.105Z,34.20
2023-05-05T15:18:33.629Z,34.20
2023-05-05T15:21:02.954Z,34.20
2023-05-05T15:23:38.447Z,34.20
2023-05-05T15:26:16.533Z,34.20
2023-05-05T15:28:46.561Z,34.10
2023-05-05T15:31:19.385Z,34.10
2023-05-05T15:33:50.499Z,34.10
2023-05-05T15:36:23.410Z,34.10
2023-05-05T15:38:52.867Z,34.00
2023-05-05T15:41:22.101Z,34.00
2023-05-05T15:43:51.314Z,34.00
2023-05-05T15:46:20.584Z,34.00
2023-05-05T15:48:49.845Z,33.90
2023-05-05T15:51:22.095Z,33.90
2023-05-05T15:53:53.296Z,33.90
2023-05-05T15:56:31.413Z,33.80
2023-05-05T15:59:03.547Z,33.80
2023-05-05T16:01:40.177Z,33.80
2023-05-05T16:04:09.588Z,33.80
2023-05-05T16:06:47.722Z,33.80
2023-05-05T16:09:17.048Z,33.80
2023-05-05T16:11:46.417Z,33.70
2023-05-05T16:14:15.865Z,33.70
2023-05-05T16:16:45.173Z,33.70
2023-05-05T16:19:14.425Z,33.60
2023-05-05T16:21:43.721Z,33.60
2023-05-05T16:24:17.234Z,33.60
2023-05-05T16:26:46.558Z,33.50
2023-05-05T16:29:15.904Z,33.50
2023-05-05T16:31:45.167Z,33.50
2023-05-05T16:34:14.561Z,33.50
2023-05-05T16:36:44.603Z,33.50
2023-05-05T16:39:14.610Z,33.40
2023-05-05T16:41:43.848Z,33.40
2023-05-05T16:44:16.770Z,33.40
2023-05-05T16:46:46.006Z,33.40
2023-05-05T16:49:15.372Z,33.30
2023-05-05T16:51:44.661Z,33.30
2023-05-05T16:54:13.857Z,33.30
2023-05-05T16:56:43.095Z,33.30
2023-05-05T16:59:12.554Z,33.30
2023-05-05T17:01:41.856Z,33.30
2023-05-05T17:04:11.959Z,33.30
2023-05-05T17:06:41.246Z,33.30
2023-05-05T17:09:10.553Z,33.30
2023-05-05T17:11:39.818Z,33.30
2023-05-05T17:14:08.999Z,33.20
2023-05-05T17:16:38.810Z,33.20
2023-05-05T17:19:08.277Z,33.20
2023-05-05T17:21:37.480Z,33.20
2023-05-05T17:24:07.474Z,33.20
2023-05-05T17:26:37.016Z,33.10
2023-05-05T17:29:06.172Z,33.10
2023-05-05T17:31:35.506Z,33.10
2023-05-05T17:34:04.676Z,33.10
2023-05-05T17:36:34.629Z,33.10
2023-05-05T17:39:04.165Z,33.10
2023-05-05T17:41:33.521Z,33.00
2023-05-05T17:44:02.939Z,33.00
2023-05-05T17:46:32.793Z,33.00
2023-05-05T17:49:02.106Z,33.00
2023-05-05T17:51:32.381Z,33.00
2023-05-05T17:54:01.705Z,32.90
2023-05-05T17:56:31.012Z,32.90
2023-05-05T17:59:01.463Z,32.90
2023-05-05T18:01:30.817Z,32.80
2023-05-05T18:04:00.151Z,32.80
2023-05-05T18:06:30.347Z,32.80
2023-05-05T18:08:59.619Z,32.80
2023-05-05T18:11:31.699Z,32.80
2023-05-05T18:14:01.299Z,32.80
2023-05-05T18:16:30.584Z,32.80
2023-05-05T18:18:59.967Z,32.70
2023-05-05T18:21:30.508Z,32.70
2023-05-05T18:24:11.680Z,32.70
2023-05-05T18:26:53.499Z,32.70
2023-05-05T18:29:27.384Z,32.70
2023-05-05T18:31:57.196Z,32.70
2023-05-05T18:34:27.309Z,32.70
2023-05-05T18:36:58.076Z,32.60
2023-05-05T18:39:27.825Z,32.60
2023-05-05T18:41:57.109Z,32.60
2023-05-05T18:44:26.490Z,32.60
2023-05-05T18:46:55.934Z,32.50
2023-05-05T18:49:30.388Z,32.50
2023-05-05T18:52:00.836Z,32.50
2023-05-05T18:54:30.176Z,32.50
2023-05-05T18:57:00.228Z,32.50
2023-05-05T18:59:29.544Z,32.40
2023-05-05T19:02:07.920Z,32.40
2023-05-05T19:04:38.874Z,32.40
2023-05-05T19:07:08.694Z,32.40
2023-05-05T19:09:38.315Z,32.40
2023-05-05T19:12:07.989Z,32.40
2023-05-05T19:14:37.268Z,32.40
2023-05-05T19:17:06.652Z,32.30
2023-05-05T19:19:36.509Z,32.30
2023-05-05T19:22:05.848Z,32.30
2023-05-05T19:24:36.489Z,32.30
2023-05-05T19:27:05.955Z,32.20
2023-05-05T19:29:35.255Z,32.30
2023-05-05T19:32:04.603Z,32.20
2023-05-05T19:34:34.340Z,32.20
2023-05-05T19:37:03.709Z,32.20
2023-05-05T19:39:33.031Z,32.20
2023-05-05T19:42:02.233Z,32.20
2023-05-05T19:44:31.708Z,32.20
2023-05-05T19:47:00.918Z,32.20
2023-05-05T19:49:30.098Z,32.20
2023-05-05T19:51:59.936Z,32.20
2023-05-05T19:54:29.867Z,32.10
2023-05-05T19:56:59.108Z,32.10
2023-05-05T19:59:28.383Z,32.10
2023-05-05T20:01:58.154Z,32.10
2023-05-05T20:04:27.347Z,32.10
2023-05-05T20:06:58.366Z,32.10
2023-05-05T20:09:28.519Z,32.10
2023-05-05T20:12:00.374Z,32.00
2023-05-05T20:14:29.559Z,32.00
2023-05-05T20:16:58.769Z,32.00
2023-05-05T20:19:28.112Z,32.00
2023-05-05T20:21:58.146Z,31.90
2023-05-05T20:24:27.405Z,31.90
2023-05-05T20:26:56.734Z,31.90
2023-05-05T20:29:25.911Z,31.90
2023-05-05T20:31:55.433Z,31.90
2023-05-05T20:34:28.318Z,31.90
2023-05-05T20:36:59.107Z,31.80
2023-05-05T20:39:28.381Z,31.80
2023-05-05T20:41:57.632Z,31.80
2023-05-05T20:44:27.267Z,31.80
2023-05-05T20:46:56.543Z,31.80
2023-05-05T20:49:25.841Z,31.70
2023-05-05T20:51:55.658Z,31.70
2023-05-05T20:54:24.939Z,31.70
2023-05-05T20:56:59.057Z,31.70
2023-05-05T20:59:29.271Z,31.60
2023-05-05T21:02:02.054Z,31.60
2023-05-05T21:04:31.340Z,31.60
2023-05-05T21:07:00.606Z,31.60
2023-05-05T21:09:30.359Z,31.50
2023-05-05T21:11:59.682Z,31.50
2023-05-05T21:14:30.330Z,31.50
2023-05-05T21:16:59.632Z,31.50
2023-05-05T21:19:28.888Z,31.40
2023-05-05T21:22:00.112Z,31.40
2023-05-05T21:24:29.505Z,31.40
2023-05-05T21:26:58.676Z,31.40
2023-05-05T21:29:28.064Z,31.40
2023-05-05T21:31:57.379Z,31.40
2023-05-05T21:34:26.697Z,31.40
2023-05-05T21:36:56.208Z,31.30
2023-05-05T21:39:26.153Z,31.30
2023-05-05T21:41:55.699Z,31.30
2023-05-05T21:44:26.690Z,31.30
2023-05-05T21:46:56.553Z,31.30
2023-05-05T21:49:25.792Z,31.20
2023-05-05T21:51:54.963Z,31.20
2023-05-05T21:54:24.217Z,31.20
2023-05-05T21:56:53.439Z,31.20
2023-05-05T21:59:22.863Z,31.20
2023-05-05T22:01:52.367Z,31.20
2023-05-05T22:04:22.010Z,31.10
2023-05-05T22:06:51.228Z,31.10
2023-05-05T22:09:20.525Z,31.10
2023-05-05T22:11:49.761Z,31.10
2023-05-05T22:14:19.056Z,31.10
2023-05-05T22:16:48.329Z,31.10
2023-05-05T22:19:17.624Z,31.10
2023-05-05T22:21:46.852Z,31.00
2023-05-05T22:24:19.053Z,31.00
2023-05-05T22:26:48.251Z,31.00
2023-05-05T22:29:17.587Z,31.00
2023-05-05T22:31:46.866Z,31.00
2023-05-05T22:34:16.178Z,31.00
2023-05-05T22:36:45.543Z,31.00
2023-05-05T22:39:14.683Z,31.00
2023-05-05T22:41:43.877Z,31.00
2023-05-05T22:44:13.036Z,31.00
2023-05-05T22:46:43.095Z,31.00
2023-05-05T22:49:19.713Z,30.90
2023-05-05T22:51:48.944Z,31.00
2023-05-05T22:54:18.177Z,30.90
2023-05-05T22:56:47.532Z,30.90
2023-05-05T22:59:16.668Z,30.90
2023-05-05T23:01:45.883Z,30.90
2023-05-05T23:04:15.178Z,31.00
2023-05-05T23:06:45.832Z,31.00
2023-05-05T23:09:14.968Z,30.90
2023-05-05T23:11:44.814Z,30.90
2023-05-05T23:14:15.289Z,30.90
2023-05-05T23:16:44.495Z,30.90
2023-05-05T23:19:14.873Z,30.90
2023-05-05T23:21:52.639Z,30.90
2023-05-05T23:24:23.435Z,31.00
2023-05-05T23:26:55.366Z,31.00
2023-05-05T23:29:27.538Z,30.90
2023-05-05T23:34:39.126Z,30.90
2023-05-05T23:37:08.636Z,31.00
2023-05-05T23:39:38.033Z,31.00
2023-05-05T23:42:07.225Z,31.00
2023-05-05T23:44:36.412Z,31.00
2023-05-05T23:47:06.677Z,31.00
2023-05-05T23:49:36.089Z,31.00
2023-05-05T23:52:05.517Z,31.00
2023-05-05T23:54:34.740Z,31.00
2023-05-05T23:57:04.430Z,31.00
2023-05-05T23:59:33.596Z,31.00
